sensor_id;sensor_type;location;lat;lon;timestamp;P1;durP1;ratioP1;P2;durP2;ratioP2
70322;SDS011;57735;56.264;43.898;2023-02-01T00:00:15;20.98;;;7.78;;
70322;SDS011;57735;56.264;43.898;2023-02-01T00:02:46;21.45;;;7.88;;
70322;SDS011;57735;56.264;43.898;2023-02-01T00:05:16;17.40;;;7.15;;
70322;SDS011;57735;56.264;43.898;2023-02-01T00:07:47;21.65;;;8.02;;
70322;SDS011;57735;56.264;43.898;2023-02-01T00:10:19;18.35;;;7.30;;
70322;SDS011;57735;56.264;43.898;2023-02-01T00:12:50;22.50;;;8.23;;
70322;SDS011;57735;56.264;43.898;2023-02-01T00:15:20;20.08;;;8.23;;
70322;SDS011;57735;56.264;43.898;2023-02-01T00:17:53;24.48;;;8.23;;
70322;SDS011;57735;56.264;43.898;2023-02-01T00:20:25;22.13;;;7.90;;
70322;SDS011;57735;56.264;43.898;2023-02-01T00:22:56;21.27;;;7.95;;
70322;SDS011;57735;56.264;43.898;2023-02-01T00:25:26;21.73;;;8.52;;
70322;SDS011;57735;56.264;43.898;2023-02-01T00:28:02;20.75;;;8.27;;
70322;SDS011;57735;56.264;43.898;2023-02-01T00:30:32;25.30;;;8.82;;
70322;SDS011;57735;56.264;43.898;2023-02-01T00:33:06;21.15;;;7.55;;
70322;SDS011;57735;56.264;43.898;2023-02-01T00:35:37;22.70;;;8.73;;
70322;SDS011;57735;56.264;43.898;2023-02-01T00:38:08;20.95;;;8.32;;
70322;SDS011;57735;56.264;43.898;2023-02-01T00:40:38;21.73;;;8.10;;
70322;SDS011;57735;56.264;43.898;2023-02-01T00:43:09;20.77;;;7.70;;
70322;SDS011;57735;56.264;43.898;2023-02-01T00:45:40;17.77;;;7.28;;
70322;SDS011;57735;56.264;43.898;2023-02-01T00:48:11;22.20;;;8.13;;
70322;SDS011;57735;56.264;43.898;2023-02-01T00:50:42;22.50;;;8.63;;
70322;SDS011;57735;56.264;43.898;2023-02-01T00:53:13;24.27;;;8.20;;
70322;SDS011;57735;56.264;43.898;2023-02-01T00:55:46;23.33;;;7.95;;
70322;SDS011;57735;56.264;43.898;2023-02-01T00:58:17;23.92;;;9.00;;
70322;SDS011;57735;56.264;43.898;2023-02-01T01:00:48;22.00;;;8.30;;
70322;SDS011;57735;56.264;43.898;2023-02-01T01:03:20;20.08;;;7.63;;
70322;SDS011;57735;56.264;43.898;2023-02-01T01:05:50;21.83;;;7.68;;
70322;SDS011;57735;56.264;43.898;2023-02-01T01:08:21;24.48;;;9.30;;
70322;SDS011;57735;56.264;43.898;2023-02-01T01:10:52;19.38;;;8.00;;
70322;SDS011;57735;56.264;43.898;2023-02-01T01:13:23;22.08;;;9.27;;
70322;SDS011;57735;56.264;43.898;2023-02-01T01:15:54;27.85;;;9.43;;
70322;SDS011;57735;56.264;43.898;2023-02-01T01:18:25;25.20;;;8.73;;
70322;SDS011;57735;56.264;43.898;2023-02-01T01:20:56;27.10;;;9.38;;
70322;SDS011;57735;56.264;43.898;2023-02-01T01:23:27;28.98;;;9.68;;
70322;SDS011;57735;56.264;43.898;2023-02-01T01:26:04;31.83;;;9.52;;
70322;SDS011;57735;56.264;43.898;2023-02-01T01:28:38;22.15;;;9.13;;
70322;SDS011;57735;56.264;43.898;2023-02-01T01:31:12;23.08;;;8.70;;
70322;SDS011;57735;56.264;43.898;2023-02-01T01:33:47;21.48;;;8.15;;
70322;SDS011;57735;56.264;43.898;2023-02-01T01:36:19;31.75;;;10.57;;
70322;SDS011;57735;56.264;43.898;2023-02-01T01:38:51;23.33;;;8.40;;
70322;SDS011;57735;56.264;43.898;2023-02-01T01:41:23;19.45;;;8.35;;
70322;SDS011;57735;56.264;43.898;2023-02-01T01:43:56;21.13;;;8.20;;
70322;SDS011;57735;56.264;43.898;2023-02-01T01:49:16;23.02;;;8.27;;
70322;SDS011;57735;56.264;43.898;2023-02-01T01:51:54;24.70;;;9.38;;
70322;SDS011;57735;56.264;43.898;2023-02-01T01:54:31;22.13;;;9.00;;
70322;SDS011;57735;56.264;43.898;2023-02-01T01:57:06;25.45;;;9.15;;
70322;SDS011;57735;56.264;43.898;2023-02-01T01:59:42;21.77;;;8.95;;
70322;SDS011;57735;56.264;43.898;2023-02-01T02:02:17;21.98;;;7.97;;
70322;SDS011;57735;56.264;43.898;2023-02-01T02:04:48;26.80;;;9.75;;
70322;SDS011;57735;56.264;43.898;2023-02-01T02:07:21;20.05;;;8.70;;
70322;SDS011;57735;56.264;43.898;2023-02-01T02:09:55;23.05;;;8.98;;
70322;SDS011;57735;56.264;43.898;2023-02-01T02:15:01;24.35;;;9.45;;
70322;SDS011;57735;56.264;43.898;2023-02-01T02:17:49;28.50;;;9.70;;
70322;SDS011;57735;56.264;43.898;2023-02-01T02:21:02;24.05;;;9.43;;
70322;SDS011;57735;56.264;43.898;2023-02-01T02:35:11;21.70;;;9.10;;
70322;SDS011;57735;56.264;43.898;2023-02-01T02:40:35;25.10;;;9.90;;
70322;SDS011;57735;56.264;43.898;2023-02-01T02:43:22;27.15;;;9.48;;
70322;SDS011;57735;56.264;43.898;2023-02-01T02:46:21;27.75;;;8.80;;
70322;SDS011;57735;56.264;43.898;2023-02-01T02:49:25;22.33;;;8.75;;
70322;SDS011;57735;56.264;43.898;2023-02-01T02:52:06;22.17;;;8.60;;
70322;SDS011;57735;56.264;43.898;2023-02-01T02:55:04;26.13;;;10.27;;
70322;SDS011;57735;56.264;43.898;2023-02-01T02:57:39;24.80;;;8.95;;
70322;SDS011;57735;56.264;43.898;2023-02-01T03:00:31;29.55;;;10.98;;
70322;SDS011;57735;56.264;43.898;2023-02-01T03:03:26;27.80;;;10.52;;
70322;SDS011;57735;56.264;43.898;2023-02-01T03:06:16;29.92;;;10.45;;
70322;SDS011;57735;56.264;43.898;2023-02-01T03:08:48;26.15;;;10.52;;
70322;SDS011;57735;56.264;43.898;2023-02-01T03:11:24;25.00;;;11.00;;
70322;SDS011;57735;56.264;43.898;2023-02-01T03:14:15;32.53;;;11.40;;
70322;SDS011;57735;56.264;43.898;2023-02-01T03:16:51;30.65;;;11.25;;
70322;SDS011;57735;56.264;43.898;2023-02-01T03:19:34;31.70;;;10.10;;
70322;SDS011;57735;56.264;43.898;2023-02-01T03:22:11;27.35;;;10.52;;
70322;SDS011;57735;56.264;43.898;2023-02-01T03:24:45;30.80;;;11.60;;
70322;SDS011;57735;56.264;43.898;2023-02-01T03:27:39;31.45;;;12.50;;
70322;SDS011;57735;56.264;43.898;2023-02-01T03:31:00;37.05;;;12.45;;
70322;SDS011;57735;56.264;43.898;2023-02-01T03:33:25;27.30;;;10.82;;
70322;SDS011;57735;56.264;43.898;2023-02-01T03:36:12;28.65;;;9.77;;
70322;SDS011;57735;56.264;43.898;2023-02-01T03:41:48;34.88;;;12.48;;
70322;SDS011;57735;56.264;43.898;2023-02-01T03:44:24;35.78;;;12.18;;
70322;SDS011;57735;56.264;43.898;2023-02-01T03:50:04;36.58;;;12.80;;
70322;SDS011;57735;56.264;43.898;2023-02-01T03:52:42;36.90;;;13.52;;
70322;SDS011;57735;56.264;43.898;2023-02-01T03:55:18;42.20;;;14.05;;
70322;SDS011;57735;56.264;43.898;2023-02-01T03:58:12;41.60;;;12.85;;
70322;SDS011;57735;56.264;43.898;2023-02-01T04:01:01;39.03;;;13.75;;
70322;SDS011;57735;56.264;43.898;2023-02-01T04:03:32;36.30;;;11.07;;
70322;SDS011;57735;56.264;43.898;2023-02-01T04:06:03;28.17;;;9.68;;
70322;SDS011;57735;56.264;43.898;2023-02-01T04:08:33;31.60;;;10.68;;
70322;SDS011;57735;56.264;43.898;2023-02-01T04:11:04;32.05;;;10.02;;
70322;SDS011;57735;56.264;43.898;2023-02-01T04:13:35;25.88;;;10.15;;
70322;SDS011;57735;56.264;43.898;2023-02-01T04:16:06;28.50;;;10.40;;
70322;SDS011;57735;56.264;43.898;2023-02-01T04:18:37;30.15;;;10.68;;
70322;SDS011;57735;56.264;43.898;2023-02-01T04:21:09;27.83;;;9.85;;
70322;SDS011;57735;56.264;43.898;2023-02-01T04:23:40;27.20;;;10.10;;
70322;SDS011;57735;56.264;43.898;2023-02-01T04:26:14;23.15;;;9.50;;
70322;SDS011;57735;56.264;43.898;2023-02-01T04:28:46;23.42;;;9.93;;
70322;SDS011;57735;56.264;43.898;2023-02-01T04:31:18;31.80;;;9.70;;
70322;SDS011;57735;56.264;43.898;2023-02-01T04:33:55;24.17;;;9.63;;
70322;SDS011;57735;56.264;43.898;2023-02-01T04:36:27;30.85;;;11.75;;
70322;SDS011;57735;56.264;43.898;2023-02-01T04:38:58;27.10;;;9.65;;
70322;SDS011;57735;56.264;43.898;2023-02-01T04:41:29;36.00;;;13.10;;
70322;SDS011;57735;56.264;43.898;2023-02-01T04:44:00;36.17;;;13.50;;
70322;SDS011;57735;56.264;43.898;2023-02-01T04:46:31;39.03;;;13.05;;
70322;SDS011;57735;56.264;43.898;2023-02-01T04:49:02;33.10;;;11.70;;
70322;SDS011;57735;56.264;43.898;2023-02-01T04:51:32;30.55;;;11.85;;
70322;SDS011;57735;56.264;43.898;2023-02-01T04:54:03;28.55;;;11.25;;
70322;SDS011;57735;56.264;43.898;2023-02-01T04:56:34;30.73;;;11.77;;
70322;SDS011;57735;56.264;43.898;2023-02-01T04:59:05;27.63;;;9.57;;
70322;SDS011;57735;56.264;43.898;2023-02-01T05:01:36;25.98;;;10.20;;
70322;SDS011;57735;56.264;43.898;2023-02-01T05:04:07;30.48;;;10.77;;
70322;SDS011;57735;56.264;43.898;2023-02-01T05:06:38;33.85;;;11.00;;
70322;SDS011;57735;56.264;43.898;2023-02-01T05:09:08;29.20;;;10.77;;
70322;SDS011;57735;56.264;43.898;2023-02-01T05:11:42;30.70;;;11.98;;
70322;SDS011;57735;56.264;43.898;2023-02-01T05:14:31;29.73;;;12.05;;
70322;SDS011;57735;56.264;43.898;2023-02-01T05:17:02;29.30;;;10.70;;
70322;SDS011;57735;56.264;43.898;2023-02-01T05:19:33;30.25;;;10.90;;
70322;SDS011;57735;56.264;43.898;2023-02-01T05:22:03;27.60;;;9.90;;
70322;SDS011;57735;56.264;43.898;2023-02-01T05:24:34;30.88;;;10.75;;
70322;SDS011;57735;56.264;43.898;2023-02-01T05:27:05;30.48;;;11.75;;
70322;SDS011;57735;56.264;43.898;2023-02-01T05:29:36;32.63;;;10.75;;
70322;SDS011;57735;56.264;43.898;2023-02-01T05:32:08;27.83;;;10.80;;
70322;SDS011;57735;56.264;43.898;2023-02-01T05:34:40;29.85;;;11.65;;
70322;SDS011;57735;56.264;43.898;2023-02-01T05:37:11;37.70;;;11.93;;
70322;SDS011;57735;56.264;43.898;2023-02-01T05:39:41;30.88;;;11.50;;
70322;SDS011;57735;56.264;43.898;2023-02-01T05:42:12;33.95;;;11.82;;
70322;SDS011;57735;56.264;43.898;2023-02-01T05:44:46;32.90;;;12.10;;
70322;SDS011;57735;56.264;43.898;2023-02-01T05:47:17;37.28;;;12.23;;
70322;SDS011;57735;56.264;43.898;2023-02-01T05:49:48;31.90;;;12.02;;
70322;SDS011;57735;56.264;43.898;2023-02-01T05:52:18;28.17;;;10.30;;
70322;SDS011;57735;56.264;43.898;2023-02-01T05:54:49;27.98;;;10.43;;
70322;SDS011;57735;56.264;43.898;2023-02-01T05:57:20;31.63;;;11.45;;
70322;SDS011;57735;56.264;43.898;2023-02-01T05:59:51;29.20;;;10.43;;
70322;SDS011;57735;56.264;43.898;2023-02-01T06:02:22;35.35;;;12.43;;
70322;SDS011;57735;56.264;43.898;2023-02-01T06:04:54;35.08;;;12.13;;
70322;SDS011;57735;56.264;43.898;2023-02-01T06:07:25;32.38;;;12.77;;
70322;SDS011;57735;56.264;43.898;2023-02-01T06:09:55;35.78;;;12.02;;
70322;SDS011;57735;56.264;43.898;2023-02-01T06:12:29;39.22;;;12.13;;
70322;SDS011;57735;56.264;43.898;2023-02-01T06:15:00;39.17;;;13.48;;
70322;SDS011;57735;56.264;43.898;2023-02-01T06:17:31;35.78;;;13.00;;
70322;SDS011;57735;56.264;43.898;2023-02-01T06:20:02;39.00;;;13.38;;
70322;SDS011;57735;56.264;43.898;2023-02-01T06:22:34;35.28;;;12.60;;
70322;SDS011;57735;56.264;43.898;2023-02-01T06:25:07;35.55;;;12.57;;
70322;SDS011;57735;56.264;43.898;2023-02-01T06:27:39;35.00;;;12.63;;
70322;SDS011;57735;56.264;43.898;2023-02-01T06:30:10;33.33;;;12.82;;
70322;SDS011;57735;56.264;43.898;2023-02-01T06:32:49;39.03;;;13.88;;
70322;SDS011;57735;56.264;43.898;2023-02-01T06:35:24;36.22;;;12.15;;
70322;SDS011;57735;56.264;43.898;2023-02-01T06:37:59;42.92;;;12.13;;
70322;SDS011;57735;56.264;43.898;2023-02-01T06:40:29;33.70;;;11.57;;
70322;SDS011;57735;56.264;43.898;2023-02-01T06:43:03;40.70;;;13.93;;
70322;SDS011;57735;56.264;43.898;2023-02-01T06:45:34;42.75;;;14.55;;
70322;SDS011;57735;56.264;43.898;2023-02-01T06:48:07;48.38;;;14.05;;
70322;SDS011;57735;56.264;43.898;2023-02-01T06:50:38;36.85;;;12.80;;
70322;SDS011;57735;56.264;43.898;2023-02-01T06:53:09;39.22;;;14.05;;
70322;SDS011;57735;56.264;43.898;2023-02-01T06:55:42;38.80;;;12.95;;
70322;SDS011;57735;56.264;43.898;2023-02-01T06:58:22;33.10;;;11.73;;
70322;SDS011;57735;56.264;43.898;2023-02-01T07:00:53;28.75;;;11.13;;
70322;SDS011;57735;56.264;43.898;2023-02-01T07:03:24;38.50;;;13.85;;
70322;SDS011;57735;56.264;43.898;2023-02-01T07:05:55;35.72;;;13.40;;
70322;SDS011;57735;56.264;43.898;2023-02-01T07:08:29;36.13;;;12.32;;
70322;SDS011;57735;56.264;43.898;2023-02-01T07:11:05;33.45;;;12.15;;
70322;SDS011;57735;56.264;43.898;2023-02-01T07:13:38;32.67;;;11.05;;
70322;SDS011;57735;56.264;43.898;2023-02-01T07:16:10;27.05;;;10.88;;
70322;SDS011;57735;56.264;43.898;2023-02-01T07:18:42;26.75;;;9.50;;
70322;SDS011;57735;56.264;43.898;2023-02-01T07:21:14;35.42;;;12.18;;
70322;SDS011;57735;56.264;43.898;2023-02-01T07:23:45;35.25;;;13.02;;
70322;SDS011;57735;56.264;43.898;2023-02-01T07:26:16;35.97;;;12.68;;
70322;SDS011;57735;56.264;43.898;2023-02-01T07:28:47;34.33;;;13.48;;
70322;SDS011;57735;56.264;43.898;2023-02-01T07:31:18;28.42;;;11.85;;
70322;SDS011;57735;56.264;43.898;2023-02-01T07:33:51;28.95;;;10.45;;
70322;SDS011;57735;56.264;43.898;2023-02-01T07:36:27;30.45;;;11.30;;
70322;SDS011;57735;56.264;43.898;2023-02-01T07:38:58;35.00;;;11.55;;
70322;SDS011;57735;56.264;43.898;2023-02-01T07:41:29;31.45;;;11.95;;
70322;SDS011;57735;56.264;43.898;2023-02-01T07:44:00;33.92;;;11.30;;
70322;SDS011;57735;56.264;43.898;2023-02-01T07:46:31;37.55;;;11.60;;
70322;SDS011;57735;56.264;43.898;2023-02-01T07:49:02;31.35;;;11.32;;
70322;SDS011;57735;56.264;43.898;2023-02-01T07:51:33;33.38;;;11.40;;
70322;SDS011;57735;56.264;43.898;2023-02-01T07:54:04;32.97;;;11.02;;
70322;SDS011;57735;56.264;43.898;2023-02-01T07:56:35;29.98;;;11.13;;
70322;SDS011;57735;56.264;43.898;2023-02-01T07:59:06;30.95;;;11.02;;
70322;SDS011;57735;56.264;43.898;2023-02-01T08:01:37;31.15;;;11.98;;
70322;SDS011;57735;56.264;43.898;2023-02-01T08:04:10;28.35;;;11.82;;
70322;SDS011;57735;56.264;43.898;2023-02-01T08:06:43;32.83;;;11.98;;
70322;SDS011;57735;56.264;43.898;2023-02-01T08:09:14;37.30;;;13.27;;
70322;SDS011;57735;56.264;43.898;2023-02-01T08:11:45;37.25;;;13.23;;
70322;SDS011;57735;56.264;43.898;2023-02-01T08:14:16;39.97;;;13.90;;
70322;SDS011;57735;56.264;43.898;2023-02-01T08:16:47;41.33;;;13.95;;
70322;SDS011;57735;56.264;43.898;2023-02-01T08:19:17;34.30;;;12.40;;
70322;SDS011;57735;56.264;43.898;2023-02-01T08:21:49;37.20;;;12.48;;
70322;SDS011;57735;56.264;43.898;2023-02-01T08:24:20;30.60;;;11.10;;
70322;SDS011;57735;56.264;43.898;2023-02-01T08:26:51;38.83;;;13.55;;
70322;SDS011;57735;56.264;43.898;2023-02-01T08:29:29;29.48;;;11.75;;
70322;SDS011;57735;56.264;43.898;2023-02-01T08:32:00;32.25;;;10.45;;
70322;SDS011;57735;56.264;43.898;2023-02-01T08:34:31;33.97;;;12.32;;
70322;SDS011;57735;56.264;43.898;2023-02-01T08:37:02;36.03;;;12.32;;
70322;SDS011;57735;56.264;43.898;2023-02-01T08:39:33;35.80;;;11.77;;
70322;SDS011;57735;56.264;43.898;2023-02-01T08:42:04;48.17;;;13.30;;
70322;SDS011;57735;56.264;43.898;2023-02-01T08:44:53;32.42;;;11.73;;
70322;SDS011;57735;56.264;43.898;2023-02-01T08:47:24;26.77;;;10.50;;
70322;SDS011;57735;56.264;43.898;2023-02-01T08:49:55;37.83;;;12.50;;
70322;SDS011;57735;56.264;43.898;2023-02-01T08:52:25;34.55;;;12.73;;
70322;SDS011;57735;56.264;43.898;2023-02-01T08:54:56;34.70;;;12.80;;
70322;SDS011;57735;56.264;43.898;2023-02-01T08:57:34;37.90;;;15.02;;
70322;SDS011;57735;56.264;43.898;2023-02-01T09:00:07;33.38;;;12.80;;
70322;SDS011;57735;56.264;43.898;2023-02-01T09:02:39;45.67;;;14.75;;
70322;SDS011;57735;56.264;43.898;2023-02-01T09:05:10;37.72;;;11.30;;
70322;SDS011;57735;56.264;43.898;2023-02-01T09:07:42;46.42;;;14.70;;
70322;SDS011;57735;56.264;43.898;2023-02-01T09:10:14;45.45;;;14.48;;
70322;SDS011;57735;56.264;43.898;2023-02-01T09:12:45;44.28;;;15.57;;
70322;SDS011;57735;56.264;43.898;2023-02-01T09:15:17;39.47;;;15.13;;
70322;SDS011;57735;56.264;43.898;2023-02-01T09:17:48;42.20;;;16.02;;
70322;SDS011;57735;56.264;43.898;2023-02-01T09:20:19;34.17;;;14.10;;
70322;SDS011;57735;56.264;43.898;2023-02-01T09:22:54;35.45;;;11.75;;
70322;SDS011;57735;56.264;43.898;2023-02-01T09:25:28;33.83;;;11.95;;
70322;SDS011;57735;56.264;43.898;2023-02-01T09:27:59;28.98;;;10.57;;
70322;SDS011;57735;56.264;43.898;2023-02-01T09:30:30;35.90;;;13.13;;
70322;SDS011;57735;56.264;43.898;2023-02-01T09:33:01;28.92;;;11.38;;
70322;SDS011;57735;56.264;43.898;2023-02-01T09:35:32;36.17;;;12.93;;
70322;SDS011;57735;56.264;43.898;2023-02-01T09:38:02;35.92;;;12.70;;
70322;SDS011;57735;56.264;43.898;2023-02-01T09:40:34;39.00;;;14.38;;
70322;SDS011;57735;56.264;43.898;2023-02-01T09:43:09;37.03;;;13.70;;
70322;SDS011;57735;56.264;43.898;2023-02-01T09:45:51;44.95;;;13.68;;
70322;SDS011;57735;56.264;43.898;2023-02-01T09:48:34;34.83;;;13.17;;
70322;SDS011;57735;56.264;43.898;2023-02-01T09:51:13;32.90;;;12.07;;
70322;SDS011;57735;56.264;43.898;2023-02-01T09:53:59;35.33;;;11.70;;
70322;SDS011;57735;56.264;43.898;2023-02-01T09:57:02;45.75;;;14.52;;
70322;SDS011;57735;56.264;43.898;2023-02-01T09:59:57;48.55;;;17.83;;
70322;SDS011;57735;56.264;43.898;2023-02-01T10:02:34;53.95;;;22.02;;
70322;SDS011;57735;56.264;43.898;2023-02-01T10:05:12;62.03;;;21.20;;
70322;SDS011;57735;56.264;43.898;2023-02-01T10:08:06;53.30;;;21.42;;
70322;SDS011;57735;56.264;43.898;2023-02-01T10:10:54;53.70;;;19.02;;
70322;SDS011;57735;56.264;43.898;2023-02-01T10:16:48;42.05;;;13.77;;
70322;SDS011;57735;56.264;43.898;2023-02-01T10:19:35;43.15;;;14.70;;
70322;SDS011;57735;56.264;43.898;2023-02-01T10:28:34;57.65;;;21.38;;
70322;SDS011;57735;56.264;43.898;2023-02-01T10:31:10;60.85;;;23.33;;
70322;SDS011;57735;56.264;43.898;2023-02-01T10:33:57;53.63;;;21.20;;
70322;SDS011;57735;56.264;43.898;2023-02-01T10:37:15;51.13;;;20.50;;
70322;SDS011;57735;56.264;43.898;2023-02-01T10:39:27;62.72;;;23.50;;
70322;SDS011;57735;56.264;43.898;2023-02-01T10:41:58;47.15;;;17.52;;
70322;SDS011;57735;56.264;43.898;2023-02-01T10:44:30;35.53;;;14.50;;
70322;SDS011;57735;56.264;43.898;2023-02-01T10:47:08;48.22;;;18.92;;
70322;SDS011;57735;56.264;43.898;2023-02-01T10:49:52;45.45;;;17.00;;
70322;SDS011;57735;56.264;43.898;2023-02-01T10:52:33;43.95;;;15.50;;
70322;SDS011;57735;56.264;43.898;2023-02-01T10:55:27;29.15;;;11.40;;
70322;SDS011;57735;56.264;43.898;2023-02-01T10:58:05;34.22;;;13.02;;
70322;SDS011;57735;56.264;43.898;2023-02-01T11:00:45;42.17;;;14.25;;
70322;SDS011;57735;56.264;43.898;2023-02-01T11:03:30;62.72;;;25.35;;
70322;SDS011;57735;56.264;43.898;2023-02-01T11:08:48;38.65;;;16.30;;
70322;SDS011;57735;56.264;43.898;2023-02-01T11:11:24;35.65;;;14.52;;
70322;SDS011;57735;56.264;43.898;2023-02-01T11:13:57;52.88;;;19.50;;
70322;SDS011;57735;56.264;43.898;2023-02-01T11:16:33;36.30;;;12.32;;
70322;SDS011;57735;56.264;43.898;2023-02-01T11:19:07;35.33;;;13.88;;
70322;SDS011;57735;56.264;43.898;2023-02-01T11:21:48;35.92;;;13.20;;
70322;SDS011;57735;56.264;43.898;2023-02-01T11:24:25;44.08;;;14.15;;
70322;SDS011;57735;56.264;43.898;2023-02-01T11:27:00;35.47;;;12.85;;
70322;SDS011;57735;56.264;43.898;2023-02-01T11:29:42;34.75;;;12.70;;
70322;SDS011;57735;56.264;43.898;2023-02-01T11:32:17;30.98;;;11.88;;
70322;SDS011;57735;56.264;43.898;2023-02-01T11:35:02;34.83;;;12.95;;
70322;SDS011;57735;56.264;43.898;2023-02-01T11:37:37;38.05;;;13.73;;
70322;SDS011;57735;56.264;43.898;2023-02-01T11:43:11;36.25;;;12.85;;
70322;SDS011;57735;56.264;43.898;2023-02-01T11:46:02;31.70;;;11.05;;
70322;SDS011;57735;56.264;43.898;2023-02-01T11:48:46;32.33;;;11.20;;
70322;SDS011;57735;56.264;43.898;2023-02-01T11:51:21;32.00;;;11.65;;
70322;SDS011;57735;56.264;43.898;2023-02-01T11:54:10;35.30;;;12.55;;
70322;SDS011;57735;56.264;43.898;2023-02-01T11:57:18;43.35;;;15.73;;
70322;SDS011;57735;56.264;43.898;2023-02-01T12:03:41;33.97;;;13.82;;
70322;SDS011;57735;56.264;43.898;2023-02-01T12:29:23;37.92;;;13.25;;
70322;SDS011;57735;56.264;43.898;2023-02-01T12:32:17;36.58;;;12.70;;
70322;SDS011;57735;56.264;43.898;2023-02-01T12:35:03;38.20;;;13.25;;
70322;SDS011;57735;56.264;43.898;2023-02-01T12:37:57;38.35;;;14.20;;
70322;SDS011;57735;56.264;43.898;2023-02-01T12:43:56;40.25;;;13.20;;
70322;SDS011;57735;56.264;43.898;2023-02-01T12:46:40;40.65;;;13.05;;
70322;SDS011;57735;56.264;43.898;2023-02-01T12:49:21;37.15;;;13.38;;
70322;SDS011;57735;56.264;43.898;2023-02-01T12:52:00;37.83;;;13.57;;
70322;SDS011;57735;56.264;43.898;2023-02-01T12:54:57;40.85;;;13.40;;
70322;SDS011;57735;56.264;43.898;2023-02-01T12:57:35;38.35;;;14.27;;
70322;SDS011;57735;56.264;43.898;2023-02-01T13:17:11;37.72;;;13.63;;
70322;SDS011;57735;56.264;43.898;2023-02-01T13:22:39;43.88;;;14.63;;
70322;SDS011;57735;56.264;43.898;2023-02-01T13:25:43;41.85;;;15.25;;
70322;SDS011;57735;56.264;43.898;2023-02-01T13:28:39;42.97;;;15.63;;
70322;SDS011;57735;56.264;43.898;2023-02-01T13:43:20;38.58;;;14.25;;
70322;SDS011;57735;56.264;43.898;2023-02-01T13:46:01;40.05;;;14.32;;
70322;SDS011;57735;56.264;43.898;2023-02-01T13:48:46;35.85;;;13.68;;
70322;SDS011;57735;56.264;43.898;2023-02-01T13:51:37;39.20;;;14.30;;
70322;SDS011;57735;56.264;43.898;2023-02-01T13:57:02;36.58;;;13.68;;
70322;SDS011;57735;56.264;43.898;2023-02-01T14:10:54;40.08;;;14.13;;
70322;SDS011;57735;56.264;43.898;2023-02-01T14:13:37;44.83;;;14.73;;
70322;SDS011;57735;56.264;43.898;2023-02-01T14:16:13;43.45;;;14.77;;
70322;SDS011;57735;56.264;43.898;2023-02-01T14:18:54;39.65;;;14.60;;
70322;SDS011;57735;56.264;43.898;2023-02-01T14:21:32;38.80;;;13.38;;
70322;SDS011;57735;56.264;43.898;2023-02-01T14:26:41;39.88;;;14.63;;
70322;SDS011;57735;56.264;43.898;2023-02-01T14:31:58;42.40;;;15.63;;
70322;SDS011;57735;56.264;43.898;2023-02-01T14:40:06;45.13;;;17.48;;
70322;SDS011;57735;56.264;43.898;2023-02-01T14:42:53;43.47;;;15.43;;
70322;SDS011;57735;56.264;43.898;2023-02-01T14:50:41;42.08;;;14.82;;
70322;SDS011;57735;56.264;43.898;2023-02-01T14:53:20;52.70;;;16.85;;
70322;SDS011;57735;56.264;43.898;2023-02-01T14:56:05;49.33;;;17.25;;
70322;SDS011;57735;56.264;43.898;2023-02-01T14:59:06;47.33;;;16.33;;
70322;SDS011;57735;56.264;43.898;2023-02-01T15:01:40;43.67;;;14.98;;
70322;SDS011;57735;56.264;43.898;2023-02-01T15:04:20;53.70;;;16.80;;
70322;SDS011;57735;56.264;43.898;2023-02-01T15:06:54;61.20;;;18.83;;
70322;SDS011;57735;56.264;43.898;2023-02-01T15:09:37;59.25;;;20.05;;
70322;SDS011;57735;56.264;43.898;2023-02-01T15:17:52;49.92;;;16.48;;
70322;SDS011;57735;56.264;43.898;2023-02-01T15:20:26;50.03;;;16.13;;
70322;SDS011;57735;56.264;43.898;2023-02-01T15:22:59;47.38;;;15.95;;
70322;SDS011;57735;56.264;43.898;2023-02-01T15:25:36;49.67;;;15.63;;
70322;SDS011;57735;56.264;43.898;2023-02-01T15:28:10;47.30;;;16.35;;
70322;SDS011;57735;56.264;43.898;2023-02-01T15:30:57;50.03;;;17.30;;
70322;SDS011;57735;56.264;43.898;2023-02-01T15:33:32;45.20;;;15.05;;
70322;SDS011;57735;56.264;43.898;2023-02-01T15:38:42;49.53;;;15.40;;
70322;SDS011;57735;56.264;43.898;2023-02-01T15:46:31;42.00;;;13.65;;
70322;SDS011;57735;56.264;43.898;2023-02-01T15:49:16;49.03;;;15.32;;
70322;SDS011;57735;56.264;43.898;2023-02-01T15:51:59;38.58;;;14.45;;
70322;SDS011;57735;56.264;43.898;2023-02-01T15:54:32;44.60;;;14.88;;
70322;SDS011;57735;56.264;43.898;2023-02-01T15:57:18;42.15;;;15.23;;
70322;SDS011;57735;56.264;43.898;2023-02-01T15:59:53;56.53;;;18.85;;
70322;SDS011;57735;56.264;43.898;2023-02-01T16:02:32;58.03;;;18.13;;
70322;SDS011;57735;56.264;43.898;2023-02-01T16:05:21;55.75;;;19.70;;
70322;SDS011;57735;56.264;43.898;2023-02-01T16:08:20;57.00;;;18.60;;
70322;SDS011;57735;56.264;43.898;2023-02-01T16:10:54;54.10;;;16.80;;
70322;SDS011;57735;56.264;43.898;2023-02-01T16:13:32;45.70;;;16.88;;
70322;SDS011;57735;56.264;43.898;2023-02-01T16:16:03;52.05;;;17.70;;
70322;SDS011;57735;56.264;43.898;2023-02-01T16:18:37;55.30;;;18.25;;
70322;SDS011;57735;56.264;43.898;2023-02-01T16:21:08;62.20;;;20.88;;
70322;SDS011;57735;56.264;43.898;2023-02-01T16:23:39;55.05;;;19.13;;
70322;SDS011;57735;56.264;43.898;2023-02-01T16:26:10;48.00;;;17.00;;
70322;SDS011;57735;56.264;43.898;2023-02-01T16:28:41;57.63;;;18.98;;
70322;SDS011;57735;56.264;43.898;2023-02-01T16:31:13;62.05;;;21.75;;
70322;SDS011;57735;56.264;43.898;2023-02-01T16:33:52;58.40;;;19.65;;
70322;SDS011;57735;56.264;43.898;2023-02-01T16:36:22;52.63;;;19.80;;
70322;SDS011;57735;56.264;43.898;2023-02-01T16:38:55;58.03;;;19.92;;
70322;SDS011;57735;56.264;43.898;2023-02-01T16:41:26;62.22;;;22.35;;
70322;SDS011;57735;56.264;43.898;2023-02-01T16:43:58;62.30;;;26.85;;
70322;SDS011;57735;56.264;43.898;2023-02-01T16:46:28;60.15;;;21.58;;
70322;SDS011;57735;56.264;43.898;2023-02-01T16:49:03;50.55;;;18.80;;
70322;SDS011;57735;56.264;43.898;2023-02-01T16:51:47;51.72;;;18.17;;
70322;SDS011;57735;56.264;43.898;2023-02-01T16:54:22;54.88;;;19.27;;
70322;SDS011;57735;56.264;43.898;2023-02-01T16:56:54;46.03;;;16.98;;
70322;SDS011;57735;56.264;43.898;2023-02-01T16:59:24;53.05;;;17.45;;
70322;SDS011;57735;56.264;43.898;2023-02-01T17:01:55;53.35;;;19.95;;
70322;SDS011;57735;56.264;43.898;2023-02-01T17:04:26;57.72;;;19.40;;
70322;SDS011;57735;56.264;43.898;2023-02-01T17:06:57;58.72;;;19.35;;
70322;SDS011;57735;56.264;43.898;2023-02-01T17:09:28;52.40;;;18.02;;
70322;SDS011;57735;56.264;43.898;2023-02-01T17:12:02;46.17;;;17.23;;
70322;SDS011;57735;56.264;43.898;2023-02-01T17:14:34;52.67;;;19.73;;
70322;SDS011;57735;56.264;43.898;2023-02-01T17:17:09;52.53;;;18.00;;
70322;SDS011;57735;56.264;43.898;2023-02-01T17:19:40;56.70;;;20.80;;
70322;SDS011;57735;56.264;43.898;2023-02-01T17:22:11;61.53;;;23.27;;
70322;SDS011;57735;56.264;43.898;2023-02-01T17:24:43;68.57;;;25.70;;
70322;SDS011;57735;56.264;43.898;2023-02-01T17:27:16;68.63;;;27.05;;